Aérodrome :
LOGIN :

S'inscrire | Disclaimer

   EN    FR    IT 

 










Légende :    VFR   VFR Marginal   IFR   IFR Intensif   IFR Très Intensif
Visi : 
Plafond : 
>= 8 km
>= 3000ft
5 à 8 km
1000 à 3000 ft
1500m à 5 km
500 à 1000 ft
800 à 1500m
200 à 500 ft
< 800m
< 200 ft
Symboles :   Orages  Brouillard  Fortes neiges  Fortes précipitations  Vent > 20 kt
SIGMETs :   Divers  Orages  Givrage  Turbulence  Onde Orograph.  Cendres Volcan.






- Altitude de l'aérodrome : 83 ft
- Code IATA : LHR


EGLL - London Heathrow

DERNIER METAR :
  • 070620Z AUTO 33007KT 290V010 9999 OVC024 17/11 Q1027

METARs EXPIRÉS :
  • 070550Z AUTO 35007KT 310V020 9999 SCT021 OVC026 17/12 Q1026 NOSIG
  • 070520Z AUTO 32009KT 290V350 9999 FEW019 OVC024 17/13 Q1026
  • 070450Z AUTO 34007KT 310V010 9999 BKN020 OVC030 17/13 Q1026
  • 070350Z AUTO 31007KT 9999 OVC033 18/13 Q1025 NOSIG

TAF TAF EGLL
Valide du 07 à 06h jusqu'au 08 à 12h UTC


070503Z 0706/0812 35009KT 9999 SCT030
TEMPO 0805/0810 BKN011
PROB30
TEMPO 0805/0807 BKN008



MET'MAP, la Météo Aéronautique d'un coup d'oeil ! - Copyright ORBIFLY Décembre 2007 - Disclaimer

ORBIFLY MET'MAP TEAM :

Programmation & Développement : Alexandra Zaïnal
Sur une idée originale de : Baudouin d'Aumeries
Soutien technique & logistique : Manuel Goepfert
Assistance : Marc-Olivier Méhu




SOURCES & CREDITS :

   NOAA